Yadkinville, North Carolina
Current Conditions -  °F | °C
As of 12:54 PM on Friday 24 Oct 2014 (Local Time) from KINT Reporting Station
Clear Clear  
Wind Chill: 66°   Ceiling: Unl
Heat Index: 66°   Visibility: 10mi
Dew Point: 40°   Wind: 5mph
Humidity: 38%   Direction: 290°WNW
Pressure: 30.05"   Gusts: NA
Location:  36.13°N, 80.66°W
Report Text: KINT 241654Z 29004KT 10SM CLR 19/04 A3005 RMK AO2 SLP170 T01890044
Loading
Personal Weather Stations






























Interactive Weather Map
Tropical Storm Tracking
New forecast layout! Learn more

10-Day Weather Forecast

Advertisements
Track Severe Weather on mobile